createdAt,value
2022-08-27T00:01:18.676Z,15.80
2022-08-27T00:03:48.371Z,15.80
2022-08-27T00:06:20.294Z,15.80
2022-08-27T00:08:51.625Z,15.80
2022-08-27T00:11:25.761Z,15.90
2022-08-27T00:13:57.011Z,16.10
2022-08-27T00:16:27.264Z,16.00
2022-08-27T00:18:59.350Z,16.00
2022-08-27T00:21:29.251Z,15.90
2022-08-27T00:24:00.588Z,15.90
2022-08-27T00:26:31.489Z,15.80
2022-08-27T00:29:01.567Z,15.70
2022-08-27T00:31:31.433Z,15.60
2022-08-27T00:34:02.465Z,15.60
2022-08-27T00:36:33.227Z,15.40
2022-08-27T00:39:03.226Z,15.30
2022-08-27T00:41:34.312Z,15.20
2022-08-27T00:44:04.222Z,15.20
2022-08-27T00:46:41.174Z,15.20
2022-08-27T00:49:13.414Z,15.00
2022-08-27T00:51:43.883Z,15.00
2022-08-27T00:54:18.890Z,15.00
2022-08-27T00:56:51.865Z,14.90
2022-08-27T00:59:24.910Z,14.90
2022-08-27T01:02:12.086Z,15.00
2022-08-27T01:04:44.811Z,15.00
2022-08-27T01:07:16.622Z,15.00
2022-08-27T01:09:47.122Z,14.90
2022-08-27T01:12:21.463Z,14.90
2022-08-27T01:14:51.938Z,14.90
2022-08-27T01:17:21.526Z,14.90
2022-08-27T01:19:54.310Z,15.00
2022-08-27T01:22:33.340Z,15.60
2022-08-27T01:25:09.685Z,15.60
2022-08-27T01:27:39.761Z,15.40
2022-08-27T01:30:11.393Z,15.30
2022-08-27T01:32:41.466Z,15.20
2022-08-27T01:35:13.665Z,15.10
2022-08-27T01:37:45.805Z,15.00
2022-08-27T01:40:20.664Z,14.90
2022-08-27T01:42:53.829Z,14.90
2022-08-27T01:45:27.093Z,14.80
2022-08-27T01:47:57.581Z,14.70
2022-08-27T01:50:30.357Z,14.60
2022-08-27T01:53:03.241Z,14.50
2022-08-27T01:55:35.321Z,14.40
2022-08-27T01:58:05.252Z,14.30
2022-08-27T02:00:37.933Z,14.40
2022-08-27T02:03:08.252Z,14.30
2022-08-27T02:05:45.015Z,14.20
2022-08-27T02:08:18.916Z,14.20
2022-08-27T02:10:53.673Z,14.10
2022-08-27T02:13:23.524Z,14.00
2022-08-27T02:15:58.419Z,14.10
2022-08-27T02:18:27.888Z,14.10
2022-08-27T02:20:57.373Z,14.00
2022-08-27T02:23:26.727Z,14.00
2022-08-27T02:25:57.386Z,13.90
2022-08-27T02:28:26.993Z,13.90
2022-08-27T02:30:56.494Z,13.90
2022-08-27T02:33:26.130Z,14.10
2022-08-27T02:35:56.308Z,14.20
2022-08-27T02:38:25.859Z,14.10
2022-08-27T02:40:57.999Z,14.30
2022-08-27T02:43:27.370Z,14.00
2022-08-27T02:45:57.971Z,14.00
2022-08-27T02:48:27.487Z,14.00
2022-08-27T02:50:56.715Z,14.00
2022-08-27T02:53:25.793Z,14.10
2022-08-27T02:55:55.500Z,14.40
2022-08-27T02:58:26.136Z,14.50
2022-08-27T03:00:57.208Z,14.40
2022-08-27T03:03:26.456Z,14.20
2022-08-27T03:05:55.383Z,14.20
2022-08-27T03:08:24.999Z,14.00
2022-08-27T03:10:54.288Z,14.00
2022-08-27T03:13:26.543Z,13.90
2022-08-27T03:15:56.092Z,13.90
2022-08-27T03:18:24.147Z,13.90
2022-08-27T03:20:59.705Z,13.90
2022-08-27T03:23:33.359Z,14.00
2022-08-27T03:26:05.634Z,14.00
2022-08-27T03:28:37.719Z,13.90
2022-08-27T03:31:10.168Z,14.00
2022-08-27T03:33:41.643Z,14.00
2022-08-27T03:36:11.918Z,14.30
2022-08-27T03:38:41.207Z,14.30
2022-08-27T03:41:10.784Z,14.30
2022-08-27T03:43:42.094Z,14.30
2022-08-27T03:46:11.947Z,14.30
2022-08-27T03:48:41.767Z,14.30
2022-08-27T03:51:16.238Z,14.30
2022-08-27T03:53:47.358Z,14.40
2022-08-27T03:56:16.912Z,14.70
2022-08-27T03:58:47.354Z,14.90
2022-08-27T04:01:18.121Z,15.00
2022-08-27T04:03:47.679Z,15.00
2022-08-27T04:06:17.070Z,15.10
2022-08-27T04:08:47.414Z,15.30
2022-08-27T04:11:16.379Z,15.20
2022-08-27T04:13:47.154Z,15.30
2022-08-27T04:16:16.672Z,15.20
2022-08-27T04:18:45.973Z,15.20
2022-08-27T04:21:17.283Z,15.10
2022-08-27T04:23:46.548Z,15.00
2022-08-27T04:26:16.283Z,14.90
2022-08-27T04:28:48.619Z,14.90
2022-08-27T04:31:20.521Z,14.90
2022-08-27T04:33:51.505Z,14.80
2022-08-27T04:36:21.657Z,14.80
2022-08-27T04:38:51.869Z,14.80
2022-08-27T04:41:25.653Z,14.80
2022-08-27T04:44:00.377Z,14.90
2022-08-27T04:46:32.884Z,14.90
2022-08-27T04:49:10.261Z,15.00
2022-08-27T04:51:40.394Z,15.00
2022-08-27T04:54:12.313Z,15.10
2022-08-27T04:56:43.201Z,15.20
2022-08-27T04:59:15.249Z,15.30
2022-08-27T05:01:45.479Z,15.40
2022-08-27T05:04:18.006Z,15.40
2022-08-27T05:06:47.628Z,15.50
2022-08-27T05:09:18.232Z,15.70
2022-08-27T05:11:48.628Z,15.70
2022-08-27T05:14:22.824Z,15.90
2022-08-27T05:16:53.699Z,15.90
2022-08-27T05:19:23.220Z,16.10
2022-08-27T05:21:54.932Z,16.20
2022-08-27T05:24:25.071Z,16.30
2022-08-27T05:26:55.602Z,16.40
2022-08-27T05:29:26.332Z,16.50
2022-08-27T05:31:56.756Z,16.70
2022-08-27T05:34:26.542Z,16.90
2022-08-27T05:36:56.200Z,17.00
2022-08-27T05:39:25.183Z,17.00
2022-08-27T05:41:58.501Z,17.20
2022-08-27T05:44:46.815Z,17.20
2022-08-27T05:47:16.651Z,17.30
2022-08-27T05:49:46.246Z,17.40
2022-08-27T05:52:15.279Z,17.50
2022-08-27T05:54:44.377Z,17.70
2022-08-27T05:57:16.572Z,17.80
2022-08-27T06:00:06.027Z,17.90
2022-08-27T06:02:41.296Z,18.10
2022-08-27T06:05:11.426Z,18.10
2022-08-27T06:07:40.931Z,18.30
2022-08-27T06:10:12.334Z,18.40
2022-08-27T06:12:43.819Z,18.50
2022-08-27T06:15:15.862Z,18.60
2022-08-27T06:17:45.986Z,18.70
2022-08-27T06:20:15.410Z,18.90
2022-08-27T06:22:45.240Z,19.10
2022-08-27T06:25:14.567Z,19.30
2022-08-27T06:27:44.547Z,19.40
2022-08-27T06:30:17.606Z,19.50
2022-08-27T06:32:47.836Z,19.60
2022-08-27T06:35:17.541Z,19.70
2022-08-27T06:37:48.455Z,19.90
2022-08-27T06:40:17.931Z,20.00
2022-08-27T06:42:48.479Z,20.10
2022-08-27T06:45:20.306Z,20.20
2022-08-27T06:47:49.854Z,20.20
2022-08-27T06:50:27.235Z,20.30
2022-08-27T06:52:57.041Z,20.50
2022-08-27T06:55:26.797Z,20.70
2022-08-27T06:57:55.854Z,20.80
2022-08-27T07:00:30.673Z,20.70
2022-08-27T07:03:02.556Z,20.90
2022-08-27T07:05:32.777Z,21.10
2022-08-27T07:08:01.942Z,21.20
2022-08-27T07:10:32.973Z,21.30
2022-08-27T07:13:04.021Z,21.60
2022-08-27T07:15:38.024Z,21.80
2022-08-27T07:18:07.395Z,21.90
2022-08-27T07:20:43.440Z,22.00
2022-08-27T07:23:13.151Z,22.30
2022-08-27T07:25:44.585Z,22.30
2022-08-27T07:28:13.672Z,22.60
2022-08-27T07:30:45.158Z,22.60
2022-08-27T07:33:14.228Z,22.80
2022-08-27T07:35:43.400Z,23.00
2022-08-27T07:38:13.149Z,23.10
2022-08-27T07:40:42.628Z,23.10
2022-08-27T07:43:29.404Z,23.40
2022-08-27T07:46:04.402Z,23.80
2022-08-27T07:48:36.382Z,24.40
2022-08-27T07:51:08.747Z,24.80
2022-08-27T07:53:37.984Z,25.20
2022-08-27T07:56:10.827Z,25.20
2022-08-27T07:58:40.778Z,25.40
2022-08-27T08:01:13.164Z,25.30
2022-08-27T08:03:43.273Z,25.20
2022-08-27T08:06:15.823Z,25.40
2022-08-27T08:08:45.971Z,25.00
2022-08-27T08:11:19.288Z,25.30
2022-08-27T08:13:49.134Z,26.10
2022-08-27T08:16:21.552Z,25.70
2022-08-27T08:18:52.191Z,26.00
2022-08-27T08:21:23.531Z,26.70
2022-08-27T08:23:53.139Z,26.80
2022-08-27T08:26:22.258Z,27.40
2022-08-27T08:28:51.968Z,27.80
2022-08-27T08:31:25.677Z,27.70
2022-08-27T08:33:55.348Z,27.90
2022-08-27T08:36:24.487Z,28.50
2022-08-27T08:38:53.613Z,28.40
2022-08-27T08:41:44.356Z,28.50
2022-08-27T08:44:27.018Z,28.60
2022-08-27T08:47:05.244Z,28.30
2022-08-27T08:49:43.302Z,28.30
2022-08-27T08:52:31.650Z,29.20
2022-08-27T08:55:20.060Z,29.80
2022-08-27T08:57:57.885Z,30.20
2022-08-27T09:00:28.201Z,30.60
2022-08-27T09:02:59.744Z,28.60
2022-08-27T09:05:28.985Z,27.80
2022-08-27T09:08:31.825Z,27.20
2022-08-27T09:11:01.814Z,26.90
2022-08-27T09:13:34.582Z,26.50
2022-08-27T09:16:06.933Z,26.50
2022-08-27T09:18:41.185Z,26.60
2022-08-27T09:21:27.712Z,27.00
2022-08-27T09:24:08.333Z,27.30
2022-08-27T09:26:41.357Z,27.10
2022-08-27T09:29:20.642Z,27.00
2022-08-27T09:31:56.556Z,28.30
2022-08-27T09:34:29.508Z,28.40
2022-08-27T09:37:06.632Z,28.30
2022-08-27T09:39:43.235Z,27.60
2022-08-27T09:42:41.628Z,27.50
2022-08-27T09:45:16.415Z,27.50
2022-08-27T09:47:49.084Z,27.80
2022-08-27T09:50:22.097Z,28.10
2022-08-27T09:52:57.506Z,28.50
2022-08-27T09:55:45.223Z,28.30
2022-08-27T09:58:21.887Z,27.80
2022-08-27T10:01:02.116Z,28.30
2022-08-27T10:03:33.541Z,29.20
2022-08-27T10:06:05.019Z,29.40
2022-08-27T10:08:43.412Z,29.50
2022-08-27T10:11:19.000Z,30.70
2022-08-27T10:13:58.038Z,31.00
2022-08-27T10:17:02.397Z,30.80
2022-08-27T10:19:44.883Z,31.30
2022-08-27T10:22:26.472Z,32.80
2022-08-27T10:25:10.080Z,34.00
2022-08-27T10:27:51.730Z,35.00
2022-08-27T10:30:25.371Z,35.90
2022-08-27T10:33:04.213Z,38.10
2022-08-27T10:35:48.014Z,36.60
2022-08-27T10:38:33.278Z,39.20
2022-08-27T10:41:11.286Z,38.20
2022-08-27T10:44:19.479Z,38.70
2022-08-27T10:47:07.390Z,35.50
2022-08-27T10:49:47.720Z,35.50
2022-08-27T10:52:24.036Z,35.30
2022-08-27T10:54:59.326Z,34.90
2022-08-27T10:57:56.728Z,34.00
2022-08-27T11:00:37.361Z,34.30
2022-08-27T11:03:13.740Z,34.40
2022-08-27T11:05:48.605Z,34.70
2022-08-27T11:08:23.618Z,34.80
2022-08-27T11:10:57.785Z,34.80
2022-08-27T11:13:34.389Z,34.80
2022-08-27T11:16:08.553Z,35.10
2022-08-27T11:18:46.725Z,35.30
2022-08-27T11:21:21.945Z,35.20
2022-08-27T11:23:58.097Z,35.10
2022-08-27T11:26:33.732Z,34.50
2022-08-27T11:29:17.924Z,34.40
2022-08-27T11:31:54.071Z,34.70
2022-08-27T11:34:34.597Z,34.10
2022-08-27T11:37:26.608Z,35.50
2022-08-27T11:40:25.750Z,36.30
2022-08-27T11:42:59.464Z,36.10
2022-08-27T11:45:35.640Z,36.20
2022-08-27T11:48:18.376Z,36.10
2022-08-27T11:50:58.080Z,36.10
2022-08-27T11:53:34.068Z,35.60
2022-08-27T11:56:16.441Z,36.10
2022-08-27T11:58:52.564Z,36.80
2022-08-27T12:01:28.945Z,37.10
2022-08-27T12:04:06.743Z,36.70
2022-08-27T12:06:46.489Z,37.30
2022-08-27T12:09:21.159Z,37.80
2022-08-27T12:12:04.888Z,37.80
2022-08-27T12:14:45.615Z,37.40
2022-08-27T12:17:26.731Z,38.80
2022-08-27T12:20:08.533Z,41.20
2022-08-27T12:23:09.751Z,42.10
2022-08-27T12:25:39.744Z,42.60
2022-08-27T12:28:13.575Z,40.40
2022-08-27T12:30:52.627Z,39.20
2022-08-27T12:33:29.789Z,37.30
2022-08-27T12:36:06.050Z,36.30
2022-08-27T12:38:50.300Z,35.60
2022-08-27T12:41:28.511Z,35.20
2022-08-27T12:44:06.554Z,36.60
2022-08-27T12:46:40.899Z,37.30
2022-08-27T12:49:38.740Z,38.30
2022-08-27T12:52:08.427Z,39.80
2022-08-27T12:54:48.489Z,41.00
2022-08-27T12:57:25.742Z,41.40
2022-08-27T13:00:08.819Z,41.90
2022-08-27T13:03:23.670Z,42.50
2022-08-27T13:05:57.796Z,43.50
2022-08-27T13:08:31.696Z,44.50
2022-08-27T13:11:13.178Z,45.10
2022-08-27T13:13:44.114Z,45.80
2022-08-27T13:16:14.484Z,44.70
2022-08-27T13:18:49.745Z,43.20
2022-08-27T13:21:24.617Z,42.80
2022-08-27T13:23:57.913Z,43.30
2022-08-27T13:26:32.221Z,44.30
2022-08-27T13:29:03.892Z,43.20
2022-08-27T13:31:35.112Z,41.50
2022-08-27T13:34:08.590Z,41.60
2022-08-27T13:36:51.244Z,41.00
2022-08-27T13:39:29.514Z,42.50
2022-08-27T13:42:16.536Z,41.30
2022-08-27T13:44:50.025Z,39.20
2022-08-27T13:47:24.130Z,36.70
2022-08-27T13:50:05.266Z,35.40
2022-08-27T13:52:57.537Z,34.50
2022-08-27T13:55:26.029Z,33.30
2022-08-27T13:57:55.409Z,33.10
2022-08-27T14:00:28.468Z,33.10
2022-08-27T14:02:59.210Z,33.10
2022-08-27T14:05:37.705Z,33.70
2022-08-27T14:08:15.904Z,34.10
2022-08-27T14:10:49.782Z,33.60
2022-08-27T14:13:24.596Z,34.20
2022-08-27T14:15:56.155Z,34.00
2022-08-27T14:18:54.970Z,33.80
2022-08-27T14:21:23.204Z,33.60
2022-08-27T14:23:56.529Z,32.50
2022-08-27T14:26:27.624Z,31.90
2022-08-27T14:28:57.133Z,32.20
2022-08-27T14:31:26.843Z,32.10
2022-08-27T14:33:56.526Z,31.60
2022-08-27T14:36:31.128Z,31.70
2022-08-27T14:39:00.856Z,31.20
2022-08-27T14:41:33.941Z,30.80
2022-08-27T14:44:04.098Z,30.60
2022-08-27T14:46:42.921Z,30.60
2022-08-27T14:49:17.118Z,30.40
2022-08-27T14:51:48.907Z,30.30
2022-08-27T14:54:18.942Z,30.20
2022-08-27T14:56:48.096Z,29.80
2022-08-27T14:59:17.236Z,29.80
2022-08-27T15:01:47.110Z,29.70
2022-08-27T15:04:17.013Z,29.30
2022-08-27T15:06:48.421Z,29.10
2022-08-27T15:09:17.727Z,29.00
2022-08-27T15:11:49.183Z,28.90
2022-08-27T15:14:24.075Z,28.90
2022-08-27T15:16:54.159Z,28.90
2022-08-27T15:19:25.531Z,28.80
2022-08-27T15:22:09.251Z,28.70
2022-08-27T15:24:43.515Z,28.40
2022-08-27T15:27:13.263Z,28.10
2022-08-27T15:29:44.910Z,28.10
2022-08-27T15:32:23.939Z,28.10
2022-08-27T15:34:59.666Z,27.90
2022-08-27T15:37:32.931Z,27.40
2022-08-27T15:40:02.878Z,27.30
2022-08-27T15:42:32.823Z,27.60
2022-08-27T15:45:02.599Z,27.70
2022-08-27T15:47:32.897Z,27.80
2022-08-27T15:50:02.325Z,27.50
2022-08-27T15:52:38.428Z,27.60
2022-08-27T15:55:22.019Z,27.70
2022-08-27T15:57:52.446Z,28.00
2022-08-27T16:00:22.827Z,27.90
2022-08-27T16:02:52.683Z,27.90
2022-08-27T16:05:23.707Z,27.80
2022-08-27T16:07:55.046Z,27.70
2022-08-27T16:10:25.062Z,27.50
2022-08-27T16:12:54.346Z,27.00
2022-08-27T16:15:23.937Z,26.60
2022-08-27T16:17:58.026Z,26.60
2022-08-27T16:20:29.248Z,26.50
2022-08-27T16:23:00.475Z,26.40
2022-08-27T16:25:29.992Z,26.20
2022-08-27T16:28:01.214Z,26.40
2022-08-27T16:30:31.199Z,26.40
2022-08-27T16:33:02.381Z,26.40
2022-08-27T16:35:32.194Z,26.50
2022-08-27T16:38:10.015Z,26.60
2022-08-27T16:40:42.996Z,26.50
2022-08-27T16:43:16.509Z,26.60
2022-08-27T16:45:45.838Z,26.20
2022-08-27T16:48:31.917Z,25.80
2022-08-27T16:51:01.826Z,25.70
2022-08-27T16:53:34.918Z,25.60
2022-08-27T16:56:04.578Z,25.50
2022-08-27T16:58:34.763Z,25.50
2022-08-27T17:01:07.518Z,25.60
2022-08-27T17:04:07.007Z,25.70
2022-08-27T17:06:33.234Z,25.70
2022-08-27T17:09:06.724Z,25.80
2022-08-27T17:11:41.103Z,26.00
2022-08-27T17:14:12.600Z,26.00
2022-08-27T17:16:43.809Z,26.00
2022-08-27T17:19:16.906Z,26.00
2022-08-27T17:21:47.278Z,25.90
2022-08-27T17:24:21.524Z,25.60
2022-08-27T17:26:51.627Z,25.40
2022-08-27T17:29:23.527Z,25.30
2022-08-27T17:31:55.005Z,25.30
2022-08-27T17:34:27.218Z,25.20
2022-08-27T17:36:57.208Z,25.10
2022-08-27T17:39:31.404Z,25.10
2022-08-27T17:42:01.626Z,25.00
2022-08-27T17:44:35.589Z,24.90
2022-08-27T17:47:09.021Z,24.50
2022-08-27T17:49:38.584Z,24.30
2022-08-27T17:52:14.019Z,24.20
2022-08-27T17:54:46.958Z,24.00
2022-08-27T17:57:18.604Z,23.80
2022-08-27T17:59:48.221Z,23.60
2022-08-27T18:02:22.527Z,23.30
2022-08-27T18:04:52.324Z,23.10
2022-08-27T18:07:22.211Z,22.90
2022-08-27T18:09:53.883Z,22.90
2022-08-27T18:12:26.153Z,22.80
2022-08-27T18:15:08.191Z,22.60
2022-08-27T18:17:39.159Z,22.50
2022-08-27T18:20:15.013Z,22.40
2022-08-27T18:22:49.023Z,22.30
2022-08-27T18:25:23.559Z,22.00
2022-08-27T18:27:58.432Z,21.90
2022-08-27T18:30:28.753Z,21.70
2022-08-27T18:32:57.926Z,21.70
2022-08-27T18:35:31.130Z,21.60
2022-08-27T18:38:02.146Z,21.60
2022-08-27T18:40:37.426Z,21.60
2022-08-27T18:43:08.983Z,21.50
2022-08-27T18:45:41.330Z,21.20
2022-08-27T18:48:16.364Z,21.10
2022-08-27T18:50:49.652Z,21.10
2022-08-27T18:53:24.240Z,21.10
2022-08-27T18:55:56.006Z,21.20
2022-08-27T18:58:27.294Z,21.20
2022-08-27T19:01:00.242Z,21.30
2022-08-27T19:03:35.868Z,21.20
2022-08-27T19:06:08.858Z,21.20
2022-08-27T19:08:39.154Z,21.20
2022-08-27T19:11:10.091Z,21.20
2022-08-27T19:13:39.404Z,21.20
2022-08-27T19:16:11.444Z,21.10
2022-08-27T19:18:43.776Z,21.00
2022-08-27T19:21:13.534Z,20.90
2022-08-27T19:23:43.543Z,20.90
2022-08-27T19:26:18.613Z,20.80
2022-08-27T19:28:48.395Z,20.80
2022-08-27T19:31:19.509Z,20.70
2022-08-27T19:33:49.264Z,20.60
2022-08-27T19:36:23.801Z,20.50
2022-08-27T19:38:59.966Z,20.40
2022-08-27T19:41:32.105Z,20.30
2022-08-27T19:44:01.704Z,20.40
2022-08-27T19:46:33.304Z,20.30
2022-08-27T19:49:02.962Z,20.20
2022-08-27T19:51:32.693Z,20.10
2022-08-27T19:54:01.708Z,19.90
2022-08-27T19:56:33.248Z,19.80
2022-08-27T19:59:17.523Z,19.60
2022-08-27T20:01:51.050Z,19.60
2022-08-27T20:04:22.364Z,19.50
2022-08-27T20:06:53.432Z,19.50
2022-08-27T20:09:26.059Z,19.50
2022-08-27T20:11:57.281Z,19.50
2022-08-27T20:14:26.964Z,19.60
2022-08-27T20:16:56.415Z,19.60
2022-08-27T20:19:26.149Z,19.70
2022-08-27T20:21:55.603Z,19.80
2022-08-27T20:24:28.004Z,19.80
2022-08-27T20:26:59.259Z,19.60
2022-08-27T20:29:32.530Z,19.60
2022-08-27T20:32:02.701Z,19.60
2022-08-27T20:34:36.701Z,19.60
2022-08-27T20:37:08.524Z,19.70
2022-08-27T20:39:38.548Z,19.90
2022-08-27T20:42:10.322Z,19.90
2022-08-27T20:44:40.499Z,19.80
2022-08-27T20:47:11.923Z,19.70
2022-08-27T20:49:42.255Z,19.60
2022-08-27T20:52:14.388Z,19.50
2022-08-27T20:54:44.120Z,19.30
2022-08-27T20:57:16.272Z,19.20
2022-08-27T21:00:02.676Z,19.10
2022-08-27T21:02:34.911Z,19.10
2022-08-27T21:05:09.666Z,19.00
2022-08-27T21:07:41.078Z,19.00
2022-08-27T21:10:11.574Z,18.90
2022-08-27T21:12:43.399Z,18.80
2022-08-27T21:15:13.829Z,18.80
2022-08-27T21:17:43.331Z,18.90
2022-08-27T21:20:15.072Z,19.00
2022-08-27T21:22:45.799Z,19.00
2022-08-27T21:25:16.426Z,18.90
2022-08-27T21:27:47.449Z,18.90
2022-08-27T21:30:17.970Z,19.10
2022-08-27T21:32:48.190Z,19.00
2022-08-27T21:35:18.058Z,19.10
2022-08-27T21:37:50.134Z,19.00
2022-08-27T21:40:21.589Z,19.00
2022-08-27T21:42:57.206Z,19.00
2022-08-27T21:45:32.266Z,19.10
2022-08-27T21:48:03.625Z,19.10
2022-08-27T21:50:36.017Z,18.90
2022-08-27T21:53:06.248Z,18.80
2022-08-27T21:55:35.290Z,18.80
2022-08-27T21:58:06.849Z,18.70
2022-08-27T22:00:41.680Z,18.60
2022-08-27T22:03:16.603Z,18.50
2022-08-27T22:05:48.083Z,18.50
2022-08-27T22:08:21.274Z,18.50
2022-08-27T22:10:53.483Z,18.60
2022-08-27T22:13:29.210Z,18.80
2022-08-27T22:15:59.514Z,18.80
2022-08-27T22:18:29.265Z,18.90
2022-08-27T22:20:59.857Z,19.00
2022-08-27T22:23:30.605Z,19.10
2022-08-27T22:26:03.838Z,19.30
2022-08-27T22:28:39.072Z,19.40
2022-08-27T22:31:12.441Z,19.30
2022-08-27T22:33:42.073Z,19.30
2022-08-27T22:36:13.368Z,19.20
2022-08-27T22:38:44.179Z,19.10
2022-08-27T22:41:17.013Z,19.00
2022-08-27T22:43:50.668Z,19.00
2022-08-27T22:46:25.626Z,19.00
2022-08-27T22:48:57.444Z,18.90
2022-08-27T22:51:28.212Z,18.80
2022-08-27T22:53:58.172Z,18.70
2022-08-27T22:56:30.331Z,18.70
2022-08-27T22:59:01.620Z,18.60
2022-08-27T23:01:31.643Z,18.60
2022-08-27T23:04:02.279Z,18.70
2022-08-27T23:06:33.212Z,18.70
2022-08-27T23:09:03.107Z,18.80
2022-08-27T23:11:32.483Z,18.70
2022-08-27T23:14:05.892Z,18.70
2022-08-27T23:16:36.125Z,18.60
2022-08-27T23:19:06.459Z,18.60
2022-08-27T23:21:37.519Z,18.60
2022-08-27T23:24:07.288Z,18.60
2022-08-27T23:26:54.125Z,18.60
2022-08-27T23:29:26.639Z,18.60
2022-08-27T23:31:58.747Z,18.70
2022-08-27T23:34:29.115Z,18.70
2022-08-27T23:36:59.178Z,18.80
2022-08-27T23:39:29.121Z,18.90
2022-08-27T23:42:00.776Z,19.00
2022-08-27T23:44:32.415Z,19.00
2022-08-27T23:47:02.743Z,18.90
2022-08-27T23:49:33.314Z,18.80
2022-08-27T23:52:05.242Z,18.70
2022-08-27T23:54:34.882Z,18.60
2022-08-27T23:57:04.342Z,18.50
2022-08-27T23:59:36.842Z,18.60
